createdAt,value
2022-07-29T00:01:53.534Z,69.86
2022-07-29T00:04:21.511Z,69.34
2022-07-29T00:06:48.558Z,69.44
2022-07-29T00:09:15.406Z,69.23
2022-07-29T00:11:42.136Z,69.18
2022-07-29T00:14:09.491Z,69.38
2022-07-29T00:16:36.532Z,69.58
2022-07-29T00:19:03.536Z,69.15
2022-07-29T00:21:30.413Z,69.02
2022-07-29T00:23:56.999Z,69.31
2022-07-29T00:26:23.543Z,70.28
2022-07-29T00:28:50.086Z,70.08
2022-07-29T00:31:16.607Z,70.16
2022-07-29T00:33:43.199Z,70.41
2022-07-29T00:36:09.913Z,71.02
2022-07-29T00:38:36.728Z,71.05
2022-07-29T00:41:03.477Z,70.84
2022-07-29T00:43:29.974Z,70.66
2022-07-29T00:45:56.738Z,71.08
2022-07-29T00:48:23.472Z,72.00
2022-07-29T00:50:51.198Z,72.08
2022-07-29T00:53:18.003Z,72.35
2022-07-29T00:55:44.639Z,73.28
2022-07-29T00:58:14.347Z,74.02
2022-07-29T01:00:43.313Z,74.36
2022-07-29T01:03:12.194Z,73.78
2022-07-29T01:05:50.327Z,73.57
2022-07-29T01:08:18.949Z,73.64
2022-07-29T01:10:47.145Z,72.80
2022-07-29T01:13:15.799Z,72.33
2022-07-29T01:15:53.434Z,72.31
2022-07-29T01:18:29.546Z,71.59
2022-07-29T01:21:30.802Z,71.41
2022-07-29T01:24:12.301Z,71.61
2022-07-29T01:26:50.238Z,72.90
2022-07-29T01:29:26.026Z,74.23
2022-07-29T01:32:28.939Z,74.65
2022-07-29T01:34:59.211Z,74.96
2022-07-29T01:38:04.837Z,75.10
2022-07-29T01:40:46.120Z,75.20
2022-07-29T01:43:17.301Z,75.51
2022-07-29T01:45:51.906Z,75.41
2022-07-29T01:48:32.684Z,75.54
2022-07-29T01:51:20.364Z,75.34
2022-07-29T01:54:08.375Z,75.35
2022-07-29T01:56:37.532Z,75.07
2022-07-29T01:59:07.501Z,75.42
2022-07-29T02:01:36.006Z,75.53
2022-07-29T02:04:08.025Z,75.13
2022-07-29T02:06:37.544Z,74.98
2022-07-29T02:09:05.549Z,74.88
2022-07-29T02:11:37.025Z,75.53
2022-07-29T02:14:05.186Z,74.99
2022-07-29T02:16:34.562Z,75.66
2022-07-29T02:19:03.349Z,76.27
2022-07-29T02:21:32.995Z,77.06
2022-07-29T02:24:03.160Z,77.63
2022-07-29T02:26:33.142Z,77.47
2022-07-29T02:29:01.238Z,77.32
2022-07-29T02:31:33.522Z,76.59
2022-07-29T02:34:02.958Z,76.99
2022-07-29T02:36:32.501Z,75.84
2022-07-29T02:39:01.806Z,75.49
2022-07-29T02:41:45.951Z,75.89
2022-07-29T02:44:15.986Z,75.96
2022-07-29T02:47:00.083Z,75.85
2022-07-29T02:49:48.819Z,75.54
2022-07-29T02:52:30.126Z,76.30
2022-07-29T02:55:03.306Z,77.84
2022-07-29T02:57:54.996Z,78.85
2022-07-29T03:00:24.841Z,78.62
2022-07-29T03:02:54.881Z,78.61
2022-07-29T03:05:22.328Z,77.97
2022-07-29T03:08:10.799Z,78.09
2022-07-29T03:10:39.877Z,78.29
2022-07-29T03:13:08.871Z,78.54
2022-07-29T03:15:36.019Z,78.97
2022-07-29T03:18:03.473Z,78.91
2022-07-29T03:20:30.404Z,79.21
2022-07-29T03:22:56.890Z,79.30
2022-07-29T03:25:23.596Z,79.46
2022-07-29T03:27:50.143Z,79.99
2022-07-29T03:30:21.583Z,79.26
2022-07-29T03:32:52.173Z,79.49
2022-07-29T03:35:20.417Z,80.39
2022-07-29T03:37:47.562Z,80.89
2022-07-29T03:40:21.026Z,81.46
2022-07-29T03:42:49.356Z,81.02
2022-07-29T03:45:19.216Z,80.18
2022-07-29T03:47:57.088Z,80.92
2022-07-29T03:50:27.039Z,81.13
2022-07-29T03:52:53.855Z,81.03
2022-07-29T03:55:20.865Z,81.66
2022-07-29T03:57:48.928Z,81.34
2022-07-29T04:00:16.977Z,80.46
2022-07-29T04:02:49.995Z,80.69
2022-07-29T04:05:17.847Z,80.44
2022-07-29T04:07:46.200Z,80.51
2022-07-29T04:10:13.057Z,80.04
2022-07-29T04:12:39.870Z,78.86
2022-07-29T04:15:07.143Z,78.71
2022-07-29T04:17:33.829Z,78.28
2022-07-29T04:20:00.537Z,78.69
2022-07-29T04:22:27.182Z,79.29
2022-07-29T04:24:54.207Z,79.95
2022-07-29T04:27:21.117Z,80.06
2022-07-29T04:29:56.371Z,79.51
2022-07-29T04:32:23.800Z,79.54
2022-07-29T04:34:50.355Z,78.18
2022-07-29T04:37:16.936Z,77.74
2022-07-29T04:39:43.600Z,77.68
2022-07-29T04:42:10.344Z,76.75
2022-07-29T04:44:37.200Z,77.08
2022-07-29T04:47:09.145Z,76.44
2022-07-29T04:49:35.716Z,76.36
2022-07-29T04:52:02.248Z,76.53
2022-07-29T04:54:28.773Z,76.42
2022-07-29T04:56:55.431Z,77.00
2022-07-29T04:59:21.895Z,76.86
2022-07-29T05:01:48.552Z,77.09
2022-07-29T05:04:15.250Z,76.62
2022-07-29T05:06:41.978Z,76.41
2022-07-29T05:09:08.652Z,76.84
2022-07-29T05:11:35.178Z,76.95
2022-07-29T05:14:01.706Z,76.04
2022-07-29T05:16:28.862Z,76.57
2022-07-29T05:18:55.338Z,77.04
2022-07-29T05:21:22.056Z,76.79
2022-07-29T05:23:48.694Z,76.29
2022-07-29T05:26:15.382Z,76.17
2022-07-29T05:28:41.981Z,76.01
2022-07-29T05:31:08.595Z,75.57
2022-07-29T05:33:37.038Z,75.11
2022-07-29T05:36:07.893Z,74.64
2022-07-29T05:38:36.751Z,73.66
2022-07-29T05:41:04.459Z,73.70
2022-07-29T05:43:31.604Z,72.42
2022-07-29T05:45:58.874Z,70.87
2022-07-29T05:48:25.907Z,69.76
2022-07-29T05:50:52.643Z,68.40
2022-07-29T05:53:20.501Z,66.47
2022-07-29T05:55:49.058Z,64.99
2022-07-29T05:58:15.805Z,63.73
2022-07-29T06:00:42.547Z,63.04
2022-07-29T06:03:09.103Z,62.41
2022-07-29T06:05:35.695Z,61.38
2022-07-29T06:08:02.611Z,61.06
2022-07-29T06:10:29.282Z,60.12
2022-07-29T06:12:55.890Z,59.00
2022-07-29T06:15:22.464Z,57.97
2022-07-29T06:18:00.190Z,57.29
2022-07-29T06:20:30.862Z,57.64
2022-07-29T06:22:58.313Z,57.98
2022-07-29T06:25:24.815Z,57.08
2022-07-29T06:27:51.399Z,57.04
2022-07-29T06:30:18.246Z,57.35
2022-07-29T06:32:44.934Z,57.14
2022-07-29T06:35:38.453Z,56.45
2022-07-29T06:37:59.866Z,55.21
2022-07-29T06:40:45.626Z,54.83
2022-07-29T06:43:12.383Z,53.84
2022-07-29T06:45:42.499Z,54.19
2022-07-29T06:48:10.030Z,54.06
2022-07-29T06:50:36.674Z,54.32
2022-07-29T06:53:03.780Z,53.15
2022-07-29T06:55:30.325Z,52.63
2022-07-29T06:57:56.826Z,52.09
2022-07-29T07:00:23.400Z,52.24
2022-07-29T07:02:50.024Z,51.31
2022-07-29T07:05:16.630Z,51.33
2022-07-29T07:07:43.141Z,51.26
2022-07-29T07:10:09.910Z,51.79
2022-07-29T07:12:36.436Z,52.50
2022-07-29T07:15:04.134Z,52.65
2022-07-29T07:17:30.617Z,52.12
2022-07-29T07:19:57.196Z,51.71
2022-07-29T07:22:23.670Z,50.98
2022-07-29T07:24:50.150Z,51.11
2022-07-29T07:27:16.646Z,51.27
2022-07-29T07:29:44.211Z,50.28
2022-07-29T07:32:11.114Z,49.69
2022-07-29T07:34:39.042Z,49.21
2022-07-29T07:37:06.654Z,48.11
2022-07-29T07:39:33.343Z,48.02
2022-07-29T07:42:00.057Z,47.31
2022-07-29T07:44:26.714Z,47.24
2022-07-29T07:46:53.512Z,46.78
2022-07-29T07:49:21.337Z,47.42
2022-07-29T07:51:50.792Z,47.12
2022-07-29T07:54:20.695Z,47.34
2022-07-29T07:56:50.819Z,46.84
2022-07-29T07:59:19.890Z,48.59
2022-07-29T08:01:47.652Z,49.79
2022-07-29T08:04:27.318Z,49.49
2022-07-29T08:06:57.946Z,47.61
2022-07-29T08:09:29.814Z,46.99
2022-07-29T08:11:58.618Z,46.07
2022-07-29T08:14:25.131Z,45.94
2022-07-29T08:16:52.370Z,45.71
2022-07-29T08:19:19.294Z,44.20
2022-07-29T08:21:46.219Z,43.60
2022-07-29T08:24:31.638Z,43.01
2022-07-29T08:26:58.246Z,41.98
2022-07-29T08:29:24.779Z,42.11
2022-07-29T08:31:51.531Z,42.64
2022-07-29T08:34:18.173Z,43.16
2022-07-29T08:36:44.736Z,43.45
2022-07-29T08:39:16.728Z,44.04
2022-07-29T08:41:56.807Z,44.96
2022-07-29T08:44:30.721Z,44.36
2022-07-29T08:46:58.050Z,42.39
2022-07-29T08:49:24.713Z,43.76
2022-07-29T08:51:52.491Z,44.16
2022-07-29T08:54:19.692Z,43.50
2022-07-29T08:56:50.674Z,43.52
2022-07-29T08:59:21.865Z,43.79
2022-07-29T09:01:53.992Z,43.10
2022-07-29T09:04:21.580Z,42.65
2022-07-29T09:06:52.403Z,42.72
2022-07-29T09:09:19.153Z,42.37
2022-07-29T09:11:45.816Z,42.22
2022-07-29T09:14:14.444Z,42.14
2022-07-29T09:16:53.416Z,40.57
2022-07-29T09:19:22.647Z,41.89
2022-07-29T09:22:03.363Z,41.11
2022-07-29T09:24:36.227Z,40.48
2022-07-29T09:27:03.235Z,40.66
2022-07-29T09:29:33.304Z,41.15
2022-07-29T09:32:09.199Z,40.92
2022-07-29T09:34:35.773Z,41.17
2022-07-29T09:37:03.115Z,41.55
2022-07-29T09:39:45.274Z,41.20
2022-07-29T09:42:13.287Z,41.75
2022-07-29T09:44:46.874Z,41.44
2022-07-29T09:47:13.712Z,42.57
2022-07-29T09:49:54.963Z,42.98
2022-07-29T09:52:22.533Z,43.27
2022-07-29T09:54:49.104Z,42.88
2022-07-29T09:57:31.240Z,42.79
2022-07-29T10:00:16.334Z,42.51
2022-07-29T10:02:47.269Z,42.11
2022-07-29T10:05:25.928Z,41.71
2022-07-29T10:07:57.905Z,40.95
2022-07-29T10:10:29.615Z,40.57
2022-07-29T10:13:01.863Z,40.99
2022-07-29T10:15:38.202Z,41.59
2022-07-29T10:18:05.254Z,42.86
2022-07-29T10:20:32.001Z,42.93
2022-07-29T10:22:58.812Z,43.50
2022-07-29T10:25:26.120Z,43.69
2022-07-29T10:27:53.364Z,43.37
2022-07-29T10:30:21.899Z,43.52
2022-07-29T10:33:12.724Z,42.76
2022-07-29T10:36:03.068Z,42.57
2022-07-29T10:39:07.340Z,43.19
2022-07-29T10:41:56.387Z,42.76
2022-07-29T10:44:26.109Z,42.40
2022-07-29T10:46:54.681Z,42.59
2022-07-29T10:49:31.133Z,42.76
2022-07-29T10:51:58.445Z,42.75
2022-07-29T10:54:34.331Z,42.40
2022-07-29T10:57:25.605Z,42.76
2022-07-29T11:00:16.881Z,43.08
2022-07-29T11:02:45.671Z,43.74
2022-07-29T11:05:15.769Z,42.91
2022-07-29T11:08:20.341Z,42.72
2022-07-29T11:11:12.548Z,43.82
2022-07-29T11:13:49.236Z,44.39
2022-07-29T11:16:16.445Z,44.35
2022-07-29T11:19:14.869Z,45.17
2022-07-29T11:21:53.786Z,45.12
2022-07-29T11:24:33.363Z,44.97
2022-07-29T11:27:14.038Z,44.15
2022-07-29T11:29:58.707Z,44.72
2022-07-29T11:32:37.658Z,44.95
2022-07-29T11:35:37.302Z,45.02
2022-07-29T11:38:23.786Z,45.54
2022-07-29T11:41:24.014Z,44.97
2022-07-29T11:43:55.229Z,44.65
2022-07-29T11:46:44.153Z,45.15
2022-07-29T11:49:11.716Z,45.31
2022-07-29T11:51:56.558Z,44.84
2022-07-29T11:54:30.035Z,44.77
2022-07-29T11:56:58.828Z,45.05
2022-07-29T11:59:33.137Z,45.40
2022-07-29T12:04:55.929Z,45.55
2022-07-29T12:07:34.917Z,45.39
2022-07-29T12:10:03.431Z,45.10
2022-07-29T12:12:30.114Z,46.20
2022-07-29T12:14:56.996Z,45.73
2022-07-29T12:17:26.951Z,45.32
2022-07-29T12:19:59.334Z,45.55
2022-07-29T12:22:42.049Z,45.29
2022-07-29T12:28:05.304Z,45.56
2022-07-29T12:30:39.795Z,45.62
2022-07-29T12:33:15.374Z,45.25
2022-07-29T12:35:47.828Z,45.41
2022-07-29T12:38:22.172Z,45.21
2022-07-29T12:40:49.904Z,45.36
2022-07-29T12:43:20.312Z,45.68
2022-07-29T12:45:50.161Z,45.37
2022-07-29T12:48:18.449Z,45.27
2022-07-29T12:51:02.356Z,45.51
2022-07-29T12:53:29.855Z,45.77
2022-07-29T12:55:58.336Z,46.03
2022-07-29T12:58:30.468Z,45.88
2022-07-29T13:01:06.264Z,46.09
2022-07-29T13:03:57.178Z,45.32
2022-07-29T13:06:45.759Z,44.63
2022-07-29T13:09:19.795Z,44.12
2022-07-29T13:11:51.961Z,43.72
2022-07-29T13:14:44.451Z,42.75
2022-07-29T13:17:24.208Z,42.48
2022-07-29T13:20:08.471Z,41.78
2022-07-29T13:22:35.615Z,42.76
2022-07-29T13:25:03.592Z,41.84
2022-07-29T13:27:37.498Z,41.48
2022-07-29T13:30:06.983Z,41.66
2022-07-29T13:32:37.553Z,41.93
2022-07-29T13:35:09.442Z,41.33
2022-07-29T13:37:39.415Z,41.65
2022-07-29T13:40:10.723Z,41.27
2022-07-29T13:42:37.473Z,41.51
2022-07-29T13:45:05.505Z,41.40
2022-07-29T13:47:33.287Z,41.43
2022-07-29T13:50:05.318Z,41.29
2022-07-29T13:52:33.218Z,41.72
2022-07-29T13:55:00.035Z,41.97
2022-07-29T13:57:26.748Z,42.19
2022-07-29T13:59:54.486Z,43.11
2022-07-29T14:02:25.570Z,43.13
2022-07-29T14:04:53.885Z,43.04
2022-07-29T14:07:21.109Z,43.77
2022-07-29T14:09:48.211Z,43.35
2022-07-29T14:12:14.863Z,42.59
2022-07-29T14:14:42.541Z,42.75
2022-07-29T14:17:10.128Z,42.97
2022-07-29T14:19:37.040Z,43.04
2022-07-29T14:22:05.820Z,43.31
2022-07-29T14:24:34.006Z,43.93
2022-07-29T14:27:04.317Z,44.01
2022-07-29T14:29:35.227Z,43.33
2022-07-29T14:32:06.446Z,43.94
2022-07-29T14:34:33.880Z,44.03
2022-07-29T14:37:00.598Z,44.31
2022-07-29T14:39:27.132Z,44.59
2022-07-29T14:41:59.625Z,44.44
2022-07-29T14:44:32.160Z,44.94
2022-07-29T14:47:08.026Z,44.86
2022-07-29T14:49:35.328Z,45.31
2022-07-29T14:52:02.088Z,44.74
2022-07-29T14:54:28.620Z,44.59
2022-07-29T14:56:58.034Z,45.17
2022-07-29T14:59:25.075Z,45.71
2022-07-29T15:01:52.005Z,45.63
2022-07-29T15:04:18.673Z,45.69
2022-07-29T15:06:45.174Z,45.79
2022-07-29T15:09:11.766Z,45.80
2022-07-29T15:11:38.954Z,45.82
2022-07-29T15:14:06.886Z,46.00
2022-07-29T15:16:36.615Z,45.82
2022-07-29T15:19:04.520Z,46.18
2022-07-29T15:21:31.206Z,46.44
2022-07-29T15:23:57.813Z,46.35
2022-07-29T15:26:24.467Z,46.36
2022-07-29T15:28:50.983Z,46.60
2022-07-29T15:31:18.219Z,47.22
2022-07-29T15:33:44.729Z,47.93
2022-07-29T15:36:25.429Z,48.48
2022-07-29T15:38:59.708Z,49.05
2022-07-29T15:41:26.218Z,49.36
2022-07-29T15:43:52.719Z,49.29
2022-07-29T15:46:38.905Z,49.93
2022-07-29T15:49:07.098Z,50.10
2022-07-29T15:51:34.066Z,50.36
2022-07-29T15:54:03.478Z,49.98
2022-07-29T15:56:31.004Z,50.37
2022-07-29T15:58:58.599Z,50.58
2022-07-29T16:01:25.269Z,50.56
2022-07-29T16:03:51.857Z,51.50
2022-07-29T16:06:18.509Z,51.68
2022-07-29T16:08:45.050Z,51.36
2022-07-29T16:11:11.471Z,51.79
2022-07-29T16:13:37.949Z,52.11
2022-07-29T16:16:04.851Z,51.97
2022-07-29T16:18:31.414Z,52.87
2022-07-29T16:20:58.185Z,52.62
2022-07-29T16:23:24.878Z,52.54
2022-07-29T16:25:59.701Z,53.01
2022-07-29T16:28:27.448Z,52.27
2022-07-29T16:30:54.045Z,53.13
2022-07-29T16:33:20.571Z,53.18
2022-07-29T16:35:47.031Z,53.11
2022-07-29T16:38:13.558Z,52.84
2022-07-29T16:40:40.108Z,53.13
2022-07-29T16:43:06.661Z,53.48
2022-07-29T16:45:45.087Z,53.30
2022-07-29T16:48:13.983Z,53.16
2022-07-29T16:50:41.429Z,53.50
2022-07-29T16:53:10.805Z,53.40
2022-07-29T16:55:37.411Z,53.32
2022-07-29T16:58:04.464Z,52.97
2022-07-29T17:00:31.384Z,53.33
2022-07-29T17:03:00.077Z,53.36
2022-07-29T17:05:29.766Z,53.75
2022-07-29T17:08:16.734Z,53.74
2022-07-29T17:10:43.311Z,54.23
2022-07-29T17:13:09.945Z,54.24
2022-07-29T17:15:36.644Z,54.18
2022-07-29T17:18:12.502Z,53.98
2022-07-29T17:20:40.921Z,53.92
2022-07-29T17:23:07.693Z,54.07
2022-07-29T17:25:34.367Z,54.56
2022-07-29T17:28:01.340Z,54.19
2022-07-29T17:30:28.709Z,54.48
2022-07-29T17:32:55.279Z,54.77
2022-07-29T17:35:40.434Z,54.42
2022-07-29T17:38:06.904Z,54.63
2022-07-29T17:40:33.422Z,54.46
2022-07-29T17:42:59.944Z,54.92
2022-07-29T17:45:26.441Z,55.38
2022-07-29T17:48:12.966Z,55.06
2022-07-29T17:50:39.971Z,55.20
2022-07-29T17:53:15.672Z,55.83
2022-07-29T17:55:45.095Z,55.56
2022-07-29T17:58:12.104Z,55.94
2022-07-29T18:00:39.112Z,55.71
2022-07-29T18:03:05.939Z,55.82
2022-07-29T18:05:32.669Z,56.35
2022-07-29T18:07:59.155Z,56.38
2022-07-29T18:10:25.606Z,56.62
2022-07-29T18:12:52.473Z,56.52
2022-07-29T18:15:19.071Z,57.02
2022-07-29T18:17:53.823Z,57.54
2022-07-29T18:20:24.029Z,56.82
2022-07-29T18:22:51.176Z,57.66
2022-07-29T18:25:17.897Z,57.41
2022-07-29T18:27:44.575Z,57.13
2022-07-29T18:30:11.231Z,57.17
2022-07-29T18:32:38.241Z,57.46
2022-07-29T18:35:05.881Z,57.93
2022-07-29T18:38:01.240Z,58.01
2022-07-29T18:40:21.143Z,58.42
2022-07-29T18:42:47.893Z,59.30
2022-07-29T18:45:19.698Z,59.39
2022-07-29T18:47:47.560Z,59.40
2022-07-29T18:50:14.803Z,62.43
2022-07-29T18:52:41.937Z,63.51
2022-07-29T18:55:09.027Z,64.96
2022-07-29T18:57:56.289Z,66.80
2022-07-29T19:00:22.763Z,70.05
2022-07-29T19:02:50.037Z,71.21
2022-07-29T19:05:16.905Z,71.60
2022-07-29T19:07:43.556Z,72.92
2022-07-29T19:10:10.298Z,75.21
2022-07-29T19:12:37.096Z,78.16
2022-07-29T19:15:04.065Z,79.19
2022-07-29T19:17:30.638Z,80.65
2022-07-29T19:19:57.277Z,81.93
2022-07-29T19:22:24.138Z,82.89
2022-07-29T19:24:51.052Z,83.57
2022-07-29T19:27:17.875Z,83.76
2022-07-29T19:29:44.701Z,84.30
2022-07-29T19:32:11.803Z,85.45
2022-07-29T19:34:38.609Z,86.29
2022-07-29T19:37:05.477Z,87.70
2022-07-29T19:39:35.173Z,88.24
2022-07-29T19:42:03.445Z,87.56
2022-07-29T19:44:30.395Z,88.56
2022-07-29T19:46:57.325Z,88.43
2022-07-29T19:49:24.170Z,89.92
2022-07-29T19:51:50.729Z,89.22
2022-07-29T19:54:20.913Z,90.64
2022-07-29T19:56:47.420Z,90.13
2022-07-29T19:59:14.526Z,90.29
2022-07-29T20:01:41.383Z,89.79
2022-07-29T20:04:08.054Z,90.54
2022-07-29T20:06:34.915Z,89.08
2022-07-29T20:09:01.399Z,88.79
2022-07-29T20:11:29.834Z,88.66
2022-07-29T20:13:56.507Z,88.03
2022-07-29T20:16:23.111Z,89.84
2022-07-29T20:18:51.930Z,94.01
2022-07-29T20:21:18.495Z,99.64
2022-07-29T20:23:46.039Z,100.00
2022-07-29T20:26:12.772Z,100.00
2022-07-29T20:28:40.350Z,100.00
2022-07-29T20:31:07.194Z,100.00
2022-07-29T20:33:33.848Z,100.00
2022-07-29T20:36:00.474Z,100.00
2022-07-29T20:38:28.590Z,100.00
2022-07-29T20:40:58.516Z,100.00
2022-07-29T20:43:26.203Z,100.00
2022-07-29T20:45:52.954Z,100.00
2022-07-29T20:48:19.707Z,100.00
2022-07-29T20:50:47.695Z,100.00
2022-07-29T20:53:15.276Z,100.00
2022-07-29T20:55:42.060Z,100.00
2022-07-29T20:58:08.796Z,100.00
2022-07-29T21:00:35.902Z,100.00
2022-07-29T21:03:02.831Z,100.00
2022-07-29T21:05:31.619Z,100.00
2022-07-29T21:07:59.909Z,100.00
2022-07-29T21:10:26.521Z,100.00
2022-07-29T21:12:52.986Z,100.00
2022-07-29T21:15:21.615Z,100.00
2022-07-29T21:17:48.489Z,100.00
2022-07-29T21:20:17.053Z,100.00
2022-07-29T21:22:44.349Z,100.00
2022-07-29T21:25:12.112Z,100.00
2022-07-29T21:27:57.115Z,100.00
2022-07-29T21:30:23.674Z,100.00
2022-07-29T21:32:50.550Z,100.00
2022-07-29T21:35:52.109Z,100.00
2022-07-29T21:38:03.644Z,100.00
2022-07-29T21:40:30.592Z,100.00
2022-07-29T21:42:57.166Z,100.00
2022-07-29T21:45:24.006Z,100.00
2022-07-29T21:47:50.532Z,100.00
2022-07-29T21:50:17.058Z,100.00
2022-07-29T21:52:43.703Z,100.00
2022-07-29T21:55:10.663Z,100.00
2022-07-29T21:57:38.229Z,100.00
2022-07-29T22:00:07.773Z,100.00
2022-07-29T22:02:34.261Z,100.00
2022-07-29T22:05:00.742Z,100.00
2022-07-29T22:07:55.409Z,100.00
2022-07-29T22:10:13.861Z,100.00
2022-07-29T22:12:40.435Z,100.00
2022-07-29T22:15:07.924Z,100.00
2022-07-29T22:17:34.508Z,100.00
2022-07-29T22:20:01.214Z,100.00
2022-07-29T22:22:27.966Z,100.00
2022-07-29T22:24:55.985Z,100.00
2022-07-29T22:27:22.822Z,100.00
2022-07-29T22:29:49.596Z,100.00
2022-07-29T22:32:16.115Z,100.00
2022-07-29T22:34:42.579Z,100.00
2022-07-29T22:37:09.042Z,100.00
2022-07-29T22:39:35.553Z,100.00
2022-07-29T22:42:02.060Z,100.00
2022-07-29T22:44:28.568Z,100.00
2022-07-29T22:46:55.003Z,100.00
2022-07-29T22:49:21.580Z,100.00
2022-07-29T22:51:48.309Z,100.00
2022-07-29T22:54:15.091Z,100.00
2022-07-29T22:56:41.532Z,100.00
2022-07-29T22:59:08.204Z,100.00
2022-07-29T23:01:37.595Z,100.00
2022-07-29T23:04:05.199Z,100.00
2022-07-29T23:06:31.770Z,100.00
2022-07-29T23:08:58.286Z,100.00
2022-07-29T23:11:24.872Z,100.00
2022-07-29T23:13:51.365Z,100.00
2022-07-29T23:16:26.762Z,100.00
2022-07-29T23:18:54.237Z,100.00
2022-07-29T23:21:23.317Z,100.00
2022-07-29T23:23:49.915Z,100.00
2022-07-29T23:26:16.857Z,100.00
2022-07-29T23:28:44.772Z,100.00
2022-07-29T23:31:11.442Z,100.00
2022-07-29T23:33:37.897Z,100.00
2022-07-29T23:36:04.374Z,100.00
2022-07-29T23:38:30.914Z,100.00
2022-07-29T23:40:58.640Z,100.00
2022-07-29T23:43:25.375Z,100.00
2022-07-29T23:45:51.919Z,100.00
2022-07-29T23:48:20.860Z,100.00
2022-07-29T23:50:47.487Z,100.00
2022-07-29T23:53:14.071Z,100.00
2022-07-29T23:55:40.810Z,100.00
2022-07-29T23:58:07.261Z,100.00
